Time;durP1;ratioP1;P1;durP2;ratioP2;P2;SDS_P1;SDS_P2;PMS_P1;PMS_P2;Temp;Humidity;BMP_temperature;BMP_pressure;BME280_temperature;BME280_humidity;BME280_pressure;Samples;Min_cycle;Max_cycle;Signal;HPM_P1;HPM_P2
2023/04/16 00:01:00;;;;;;;;;7.33;7.33;;;;;15.65;55.70;101905.81;5047311;28;46709;-76
2023/04/16 00:03:26;;;;;;;;;7.67;7.67;;;;;15.48;55.67;101886.34;5082407;28;45857;-77
2023/04/16 00:05:54;;;;;;;;;8.00;7.33;;;;;15.53;56.18;101896.53;5069097;28;45312;-76
2023/04/16 00:08:20;;;;;;;;;7.00;7.00;;;;;15.59;56.37;101911.06;5058220;28;45293;-76
2023/04/16 00:10:45;;;;;;;;;10.67;9.67;;;;;15.53;55.99;101896.53;5043735;28;45278;-76
2023/04/16 00:13:11;;;;;;;;;8.00;6.33;;;;;15.52;56.55;101906.44;5061875;28;45252;-76
2023/04/16 00:15:36;;;;;;;;;8.00;8.00;;;;;15.57;56.09;101913.94;5043623;28;45250;-76
2023/04/16 00:18:02;;;;;;;;;6.67;6.67;;;;;15.49;56.74;101903.25;5043882;28;45340;-76
2023/04/16 00:20:27;;;;;;;;;7.00;7.00;;;;;15.40;56.33;101884.59;5043627;28;46224;-76
2023/04/16 00:22:52;;;;;;;;;7.67;7.00;;;;;15.45;56.74;101893.91;5043315;28;49858;-76
2023/04/16 00:25:17;;;;;;;;;7.00;7.00;;;;;15.47;57.61;101900.75;5042849;28;56094;-76
2023/04/16 00:27:43;;;;;;;;;6.67;6.67;;;;;15.46;57.35;101903.63;5061339;28;45398;-76
2023/04/16 00:30:08;;;;;;;;;7.67;6.67;;;;;15.30;57.91;101897.38;5076939;28;45606;-77
2023/04/16 00:32:34;;;;;;;;;6.67;6.67;;;;;15.27;58.33;101906.56;5081942;27;45935;-76
2023/04/16 00:34:59;;;;;;;;;7.00;7.00;;;;;15.19;57.89;101898.59;5080548;28;45408;-76
2023/04/16 00:37:25;;;;;;;;;3.00;3.00;;;;;15.15;57.72;101908.81;5081229;28;51803;-76
2023/04/16 00:39:50;;;;;;;;;6.33;5.67;;;;;15.02;58.14;101900.53;5080549;28;46248;-77
2023/04/16 00:42:15;;;;;;;;;6.67;6.67;;;;;14.63;58.24;101870.91;5081806;27;46601;-76
2023/04/16 00:44:41;;;;;;;;;8.00;7.67;;;;;14.60;58.68;101892.66;5081564;28;50639;-76
2023/04/16 00:47:06;;;;;;;;;7.00;7.00;;;;;14.61;58.52;101906.88;5081819;27;45741;-76
2023/04/16 00:49:32;;;;;;;;;6.33;6.00;;;;;14.49;58.92;101915.25;5080168;28;46312;-77
2023/04/16 00:51:58;;;;;;;;;7.00;6.33;;;;;14.24;59.50;101901.13;5081305;27;46097;-77
2023/04/16 00:54:24;;;;;;;;;7.00;7.00;;;;;14.22;59.90;101922.69;5081685;27;45306;-77
2023/04/16 00:56:50;;;;;;;;;6.33;6.33;;;;;14.11;59.87;101931.06;5081771;27;45400;-77
2023/04/16 00:59:15;;;;;;;;;5.00;5.00;;;;;13.99;60.89;101930.56;5080915;27;45276;-77
2023/04/16 01:01:41;;;;;;;;;8.33;6.33;;;;;13.89;62.08;101920.06;5080027;28;48106;-77
2023/04/16 01:04:06;;;;;;;;;7.00;7.00;;;;;13.93;62.45;101928.56;5081279;28;45360;-77
2023/04/16 01:06:31;;;;;;;;;6.00;5.67;;;;;13.71;62.42;101914.88;5081363;27;45860;-77
2023/04/16 01:08:57;;;;;;;;;6.33;6.33;;;;;13.61;62.96;101897.16;5081349;27;45308;-77
2023/04/16 01:11:22;;;;;;;;;9.33;7.33;;;;;13.60;62.49;101905.34;5081124;28;45303;-77
2023/04/16 01:13:48;;;;;;;;;6.67;6.67;;;;;13.58;63.30;101916.19;5081482;27;45201;-77
2023/04/16 01:16:13;;;;;;;;;8.00;8.00;;;;;13.52;63.05;101919.53;5081419;28;45480;-77
2023/04/16 01:18:38;;;;;;;;;7.67;7.67;;;;;13.44;63.78;101924.81;5081177;28;45343;-77
2023/04/16 01:21:04;;;;;;;;;7.00;7.00;;;;;13.35;64.38;101922.13;5080797;27;45337;-76
2023/04/16 01:23:30;;;;;;;;;9.67;9.67;;;;;13.31;64.97;101928.81;5081171;28;45320;-77
2023/04/16 01:25:55;;;;;;;;;10.33;9.67;;;;;13.27;66.28;101932.81;5079781;28;45337;-76
2023/04/16 01:28:21;;;;;;;;;10.00;10.00;;;;;13.30;65.59;101929.81;5079283;28;47584;-76
2023/04/16 01:30:46;;;;;;;;;10.67;10.67;;;;;13.10;65.31;101907.88;5062373;28;45876;-77
2023/04/16 01:33:13;;;;;;;;;12.33;12.33;;;;;13.07;65.70;101911.72;5080897;28;46641;-76
2023/04/16 01:35:40;;;;;;;;;4.00;4.00;;;;;13.09;66.39;101923.09;5080795;28;45280;-77
2023/04/16 01:38:06;;;;;;;;;9.67;9.67;;;;;13.05;66.74;101916.38;5080670;28;45524;-77
2023/04/16 01:40:33;;;;;;;;;8.33;8.33;;;;;12.98;67.13;101913.53;5062626;28;48614;-77
2023/04/16 01:42:58;;;;;;;;;9.67;9.33;;;;;12.99;66.48;101915.19;5080789;28;45228;-77
2023/04/16 01:45:24;;;;;;;;;11.00;10.00;;;;;12.98;67.28;101916.19;5080830;28;45450;-77
2023/04/16 01:47:50;;;;;;;;;10.33;10.33;;;;;12.96;67.42;101918.19;5080553;28;45323;-77
2023/04/16 01:50:17;;;;;;;;;6.33;6.33;;;;;12.92;67.73;101910.66;5080436;28;46068;-76
2023/04/16 01:52:42;;;;;;;;;11.00;9.67;;;;;12.85;68.44;101918.47;5062079;28;45442;-76
2023/04/16 01:55:08;;;;;;;;;9.33;9.33;;;;;13.00;68.06;101926.72;5080430;28;45299;-77
2023/04/16 01:57:34;;;;;;;;;13.33;10.00;;;;;12.99;68.32;101922.38;5062294;28;46254;-77
2023/04/16 01:59:59;;;;;;;;;10.00;9.67;;;;;13.00;67.80;101926.72;5062110;28;47281;-77
2023/04/16 02:02:26;;;;;;;;;8.67;8.67;;;;;12.77;69.39;101911.28;5080623;28;45334;-77
2023/04/16 02:04:52;;;;;;;;;5.00;5.00;;;;;12.86;69.44;101933.47;5080531;28;45224;-78
2023/04/16 02:07:17;;;;;;;;;12.00;10.33;;;;;12.81;69.37;101931.28;5080024;28;45545;-76
2023/04/16 02:09:43;;;;;;;;;11.00;11.00;;;;;12.68;68.81;101913.06;5080156;28;46099;-76
2023/04/16 02:12:10;;;;;;;;;14.00;10.33;;;;;12.78;68.92;101931.59;5061336;28;45362;-76
2023/04/16 02:14:35;;;;;;;;;9.00;9.00;;;;;12.67;68.83;101919.41;5080375;28;45310;-77
2023/04/16 02:17:00;;;;;;;;;13.00;12.33;;;;;12.73;69.20;101926.78;5080095;28;45576;-77
2023/04/16 02:19:26;;;;;;;;;13.00;11.00;;;;;12.67;69.58;101922.06;5080119;28;45287;-77
2023/04/16 02:21:52;;;;;;;;;12.33;9.00;;;;;12.65;69.64;101923.22;5079825;28;45343;-77
2023/04/16 02:24:18;;;;;;;;;14.67;14.67;;;;;12.55;70.51;101929.53;5080178;28;45464;-77
2023/04/16 02:26:43;;;;;;;;;10.67;10.33;;;;;12.45;70.70;101921.63;5080098;28;45468;-77
2023/04/16 02:29:09;;;;;;;;;14.67;12.33;;;;;12.54;70.97;101925.16;5079580;28;45898;-77
2023/04/16 02:31:34;;;;;;;;;12.33;12.33;;;;;12.52;71.37;101935.16;5080088;27;45274;-77
2023/04/16 02:34:00;;;;;;;;;15.33;15.33;;;;;12.41;71.77;101920.25;5080266;28;45262;-76
2023/04/16 02:36:26;;;;;;;;;13.67;10.67;;;;;12.48;71.99;101931.97;5079517;28;45519;-76
2023/04/16 02:38:52;;;;;;;;;14.67;13.33;;;;;12.48;71.37;101931.97;5079870;27;46062;-76
2023/04/16 02:41:17;;;;;;;;;15.33;13.00;;;;;12.39;71.47;101916.09;5079898;27;45215;-76
2023/04/16 02:43:42;;;;;;;;;19.33;12.67;;;;;12.35;70.90;101923.56;5080100;27;45618;-77
2023/04/16 02:46:08;;;;;;;;;12.33;10.67;;;;;12.37;70.93;101927.72;5078475;28;46210;-76
2023/04/16 02:48:33;;;;;;;;;12.67;12.00;;;;;12.26;72.24;101930.66;5078315;28;47522;-77
2023/04/16 02:50:58;;;;;;;;;9.33;8.67;;;;;12.27;72.40;101934.19;5078102;28;45739;-76
2023/04/16 02:53:24;;;;;;;;;13.67;11.00;;;;;12.29;72.54;101940.16;5078445;28;45415;-77
2023/04/16 02:55:54;;;;;;;;;12.33;11.33;;;;;12.39;73.57;101948.06;5078391;28;45313;-77
2023/04/16 02:58:21;;;;;;;;;12.33;11.00;;;;;12.45;73.91;101958.13;5079624;27;45239;-76
2023/04/16 03:00:46;;;;;;;;;11.33;11.00;;;;;12.48;74.10;101957.81;5079536;28;45284;-77
2023/04/16 03:03:12;;;;;;;;;12.00;10.67;;;;;12.46;73.18;101955.31;5079653;27;45212;-77
2023/04/16 03:05:37;;;;;;;;;12.00;11.00;;;;;12.55;74.14;101960.66;5079205;27;45330;-77
2023/04/16 03:08:03;;;;;;;;;11.33;10.00;;;;;12.57;74.09;101964.84;5079552;27;45744;-77
2023/04/16 03:10:28;;;;;;;;;16.67;12.00;;;;;12.58;74.70;101968.34;5079686;27;45243;-76
2023/04/16 03:12:54;;;;;;;;;11.67;11.67;;;;;12.64;74.80;101973.06;5079707;27;45330;-77
2023/04/16 03:15:19;;;;;;;;;15.00;12.33;;;;;12.59;75.92;101962.88;5079131;27;54268;-76
2023/04/16 03:17:45;;;;;;;;;11.67;11.33;;;;;12.81;76.50;101981.97;5062135;28;47488;-76
2023/04/16 03:20:10;;;;;;;;;13.67;13.00;;;;;12.87;76.04;101970.69;5078870;28;54624;-76
2023/04/16 03:22:37;;;;;;;;;10.00;10.00;;;;;12.96;75.98;101973.41;5081138;28;45475;-77
2023/04/16 03:25:02;;;;;;;;;15.33;14.00;;;;;13.03;77.08;101974.44;5082819;28;45391;-76
2023/04/16 03:27:28;;;;;;;;;12.00;12.00;;;;;13.16;77.74;101973.97;5082838;28;46225;-77
2023/04/16 03:29:53;;;;;;;;;15.67;12.00;;;;;13.28;78.55;101974.50;5082308;28;48372;-76
2023/04/16 03:32:18;;;;;;;;;14.33;12.33;;;;;13.33;78.37;101979.38;5083087;27;45370;-76
2023/04/16 03:34:44;;;;;;;;;15.00;15.00;;;;;13.35;78.79;101972.84;5081277;28;50012;-76
2023/04/16 03:37:10;;;;;;;;;17.67;17.67;;;;;13.37;78.61;101962.00;5080954;28;47254;-76
2023/04/16 03:39:36;;;;;;;;;14.00;14.00;;;;;13.51;78.43;101963.25;5081472;28;45338;-76
2023/04/16 03:42:02;;;;;;;;;17.00;15.67;;;;;13.57;79.14;101967.94;5082785;27;45251;-76
2023/04/16 03:44:27;;;;;;;;;25.33;22.33;;;;;13.63;79.27;101953.09;5081383;28;46495;-76
2023/04/16 03:46:53;;;;;;;;;21.00;16.67;;;;;13.72;78.78;101953.94;5082411;27;46498;-77
2023/04/16 03:49:18;;;;;;;;;18.00;17.33;;;;;13.89;79.15;101966.31;5082266;28;50014;-76
2023/04/16 03:51:43;;;;;;;;;22.67;22.00;;;;;13.88;79.13;101958.44;5082167;27;45175;-77
2023/04/16 03:54:09;;;;;;;;;17.67;17.67;;;;;13.99;78.65;101965.31;5082465;28;45493;-76
2023/04/16 03:56:34;;;;;;;;;24.00;22.67;;;;;13.94;78.91;101946.25;5082086;28;55902;-76
2023/04/16 03:58:59;;;;;;;;;20.67;19.67;;;;;14.05;78.66;101963.81;5082393;27;45309;-76
2023/04/16 04:01:24;;;;;;;;;21.33;21.00;;;;;14.06;78.33;101968.97;5080978;28;45365;-76
2023/04/16 04:03:50;;;;;;;;;27.00;20.00;;;;;14.08;78.62;101980.34;5080500;28;56620;-76
2023/04/16 04:06:15;;;;;;;;;22.00;21.33;;;;;14.09;79.53;101970.47;5080480;28;48021;-76
2023/04/16 04:08:40;;;;;;;;;30.67;24.67;;;;;14.18;78.91;101979.31;5080756;28;48897;-76
2023/04/16 04:11:06;;;;;;;;;24.67;23.00;;;;;14.15;78.87;101980.50;5082368;28;45308;-77
2023/04/16 04:13:31;;;;;;;;;29.33;26.33;;;;;14.23;78.72;101985.88;5081924;28;49966;-76
2023/04/16 04:15:56;;;;;;;;;22.67;21.67;;;;;14.27;78.80;101978.31;5080736;28;47420;-75
2023/04/16 04:18:22;;;;;;;;;27.00;25.33;;;;;14.24;79.16;101979.50;5080801;28;45878;-76
2023/04/16 04:20:47;;;;;;;;;23.67;23.33;;;;;14.17;79.23;101959.78;5080425;28;45584;-76
2023/04/16 04:23:12;;;;;;;;;28.00;25.33;;;;;14.13;78.99;101953.94;5082096;27;45362;-77
2023/04/16 04:25:38;;;;;;;;;30.00;26.33;;;;;14.23;78.62;101969.81;5081969;28;45365;-76
2023/04/16 04:28:03;;;;;;;;;30.00;27.75;;;;;14.26;78.85;101971.31;5081848;28;45315;-76
2023/04/16 04:30:28;;;;;;;;;20.33;19.67;;;;;14.21;78.80;101963.78;5064914;28;45487;-77
2023/04/16 04:32:54;;;;;;;;;28.33;27.67;;;;;14.27;78.33;101972.97;5081690;28;45557;-77
2023/04/16 04:35:19;;;;;;;;;26.33;24.00;;;;;14.27;78.76;101973.81;5062704;28;47312;-76
2023/04/16 04:37:45;;;;;;;;;28.33;25.67;;;;;14.33;78.51;101980.31;5063024;28;45358;-76
2023/04/16 04:40:10;;;;;;;;;25.33;24.00;;;;;14.31;78.88;101976.16;5081970;28;45287;-76
2023/04/16 04:42:37;;;;;;;;;25.00;24.00;;;;;14.30;78.30;101969.97;5079225;28;45222;-76
2023/04/16 04:45:02;;;;;;;;;25.67;25.67;;;;;14.19;78.10;101960.44;5053856;28;47593;-76
2023/04/16 04:47:28;;;;;;;;;24.67;23.33;;;;;14.13;77.79;101961.97;5069905;28;45163;-76
2023/04/16 04:49:53;;;;;;;;;23.00;22.67;;;;;14.00;77.95;101934.91;5081016;28;45679;-77
2023/04/16 04:52:19;;;;;;;;;34.00;26.50;;;;;14.12;78.39;101957.63;5051177;28;49120;-77
2023/04/16 04:54:44;;;;;;;;;21.67;21.00;;;;;14.07;77.88;101965.28;5062842;28;48129;-76
2023/04/16 04:57:10;;;;;;;;;23.67;20.33;;;;;13.98;78.16;101964.47;5063129;28;45340;-76
2023/04/16 04:59:35;;;;;;;;;28.67;26.33;;;;;14.00;78.22;101975.84;5081566;28;45307;-77
2023/04/16 05:02:02;;;;;;;;;23.33;23.33;;;;;13.96;78.56;101974.50;5081423;28;45544;-76
2023/04/16 05:04:27;;;;;;;;;12.67;12.00;;;;;13.95;78.38;101975.47;5081459;28;45626;-77
2023/04/16 05:06:53;;;;;;;;;28.00;24.67;;;;;13.96;78.57;101971.84;5080809;28;45410;-76
2023/04/16 05:09:18;;;;;;;;;24.00;20.67;;;;;13.96;78.12;101968.31;5062935;28;45356;-77
2023/04/16 05:11:44;;;;;;;;;30.00;23.33;;;;;13.93;77.35;101968.66;5081180;28;45321;-77
2023/04/16 05:14:09;;;;;;;;;25.67;21.00;;;;;13.93;77.99;101985.53;5078680;28;45459;-76
2023/04/16 05:16:36;;;;;;;;;27.75;24.25;;;;;13.87;78.23;101986.19;5080842;28;51974;-78
2023/04/16 05:19:01;;;;;;;;;18.75;18.75;;;;;13.82;78.40;101991.19;5069783;28;45328;-77
2023/04/16 05:21:26;;;;;;;;;23.00;20.33;;;;;13.86;78.40;101992.53;5081002;28;45452;-76
2023/04/16 05:23:52;;;;;;;;;20.33;20.33;;;;;13.76;78.70;101982.84;5094875;28;45160;-76
2023/04/16 05:26:17;;;;;;;;;19.00;16.00;;;;;13.76;78.44;101982.84;5102325;28;44652;-77
2023/04/16 05:28:43;;;;;;;;;24.00;21.67;;;;;13.85;78.54;101990.84;5086094;28;44692;-77
2023/04/16 05:31:08;;;;;;;;;28.33;23.00;;;;;13.79;78.59;101994.19;5092543;28;52670;-77
2023/04/16 05:33:33;;;;;;;;;27.00;20.00;;;;;13.60;78.95;101966.78;5096060;27;52624;-76
2023/04/16 05:35:59;;;;;;;;;22.50;22.50;;;;;13.77;79.21;102002.38;5099873;28;44589;-77
2023/04/16 05:38:24;;;;;;;;;26.67;21.67;;;;;13.87;78.87;102015.56;5099787;28;44929;-75
2023/04/16 05:40:49;;;;;;;;;28.67;26.33;;;;;13.78;79.01;101997.84;5099889;28;45406;-77
2023/04/16 05:43:14;;;;;;;;;28.00;26.75;;;;;13.85;79.25;102015.75;5079323;28;56371;-78
2023/04/16 05:45:40;;;;;;;;;24.33;22.00;;;;;13.84;79.18;102007.88;5094220;28;45291;-75
2023/04/16 05:48:07;;;;;;;;;23.75;22.00;;;;;13.84;79.01;102016.75;5081641;28;45344;-75
2023/04/16 05:50:33;;;;;;;;;33.75;29.00;;;;;13.86;78.97;102016.59;5096205;28;45052;-77
2023/04/16 05:52:59;;;;;;;;;26.67;24.67;;;;;13.76;79.52;102009.56;5097007;28;45974;-78
2023/04/16 05:55:24;;;;;;;;;33.25;30.25;;;;;13.63;79.37;101995.84;5090209;28;45201;-75
2023/04/16 05:57:49;;;;;;;;;28.33;26.33;;;;;13.74;79.75;102019.56;5093147;28;44698;-74
2023/04/16 06:00:15;;;;;;;;;30.25;25.25;;;;;13.76;79.32;102017.56;5080427;28;56738;-78
2023/04/16 06:02:40;;;;;;;;;25.50;24.50;;;;;13.74;79.65;102022.22;5094727;28;46212;-75
2023/04/16 06:05:06;;;;;;;;;27.75;26.00;;;;;13.70;80.21;102026.22;5091675;28;45232;-75
2023/04/16 06:07:31;;;;;;;;;29.67;29.00;;;;;13.69;80.20;102021.91;5093015;28;45310;-76
2023/04/16 06:09:56;;;;;;;;;24.67;24.33;;;;;13.64;80.75;102013.53;5088244;28;54904;-75
2023/04/16 06:12:22;;;;;;;;;33.75;30.75;;;;;13.80;81.54;102030.59;5088414;28;53277;-75
2023/04/16 06:14:47;;;;;;;;;28.33;28.00;;;;;13.74;81.55;102000.84;5085772;28;45350;-76
2023/04/16 06:17:12;;;;;;;;;29.00;24.00;;;;;14.01;81.07;102030.94;5081575;28;45202;-76
2023/04/16 06:19:38;;;;;;;;;29.00;25.33;;;;;14.14;81.54;102045.69;5073398;28;45435;-75
2023/04/16 06:22:05;;;;;;;;;33.33;32.67;;;;;14.18;81.47;102041.66;5079766;28;57194;-76
2023/04/16 06:24:30;;;;;;;;;35.67;30.67;;;;;14.14;81.75;102026.97;5068852;28;45419;-77
2023/04/16 06:26:56;;;;;;;;;27.00;27.00;;;;;14.37;81.34;102058.41;5081812;28;45263;-77
2023/04/16 06:29:21;;;;;;;;;32.50;28.00;;;;;14.37;80.96;102045.03;5077275;28;45951;-75
2023/04/16 06:31:47;;;;;;;;;29.00;28.00;;;;;14.31;81.10;102057.19;5088301;28;46993;-79
2023/04/16 06:34:12;;;;;;;;;24.33;24.33;;;;;14.22;81.22;102032.28;5073699;28;45366;-78
2023/04/16 06:36:38;;;;;;;;;26.75;25.00;;;;;14.35;81.11;102047.88;5093093;28;45384;-78
2023/04/16 06:39:03;;;;;;;;;29.00;27.33;;;;;14.36;80.85;102044.19;5092670;28;45573;-78
2023/04/16 06:41:29;;;;;;;;;36.33;30.67;;;;;14.39;80.98;102051.88;5094008;28;45261;-77
2023/04/16 06:43:54;;;;;;;;;31.75;31.25;;;;;14.42;80.95;102041.84;5093637;28;45321;-78
2023/04/16 06:46:20;;;;;;;;;26.00;26.00;;;;;14.53;81.03;102049.53;5094206;28;45299;-76
2023/04/16 06:48:45;;;;;;;;;33.33;31.00;;;;;14.64;81.89;102054.50;5075147;28;46070;-77
2023/04/16 06:51:10;;;;;;;;;31.33;28.67;;;;;14.67;81.13;102052.50;5093443;28;52878;-77
2023/04/16 06:53:36;;;;;;;;;27.67;27.67;;;;;14.75;81.24;102049.81;5094750;28;45174;-77
2023/04/16 06:56:02;;;;;;;;;34.33;31.00;;;;;14.80;80.72;102042.16;5093393;27;45288;-78
2023/04/16 06:58:27;;;;;;;;;27.67;27.67;;;;;14.84;81.27;102038.13;5099325;28;45445;-78
2023/04/16 07:00:52;;;;;;;;;35.25;31.75;;;;;15.02;80.67;102051.28;5080233;28;47395;-79
2023/04/16 07:03:18;;;;;;;;;24.33;22.67;;;;;15.04;80.33;102044.91;5104926;27;45154;-79
2023/04/16 07:05:43;;;;;;;;;26.67;25.33;;;;;15.20;80.05;102060.94;5081486;28;45223;-78
2023/04/16 07:08:08;;;;;;;;;31.33;30.00;;;;;15.19;79.52;102061.97;5096826;28;45204;-78
2023/04/16 07:10:34;;;;;;;;;37.33;33.33;;;;;15.30;79.62;102058.06;5096676;28;45878;-78
2023/04/16 07:13:00;;;;;;;;;31.25;29.25;;;;;15.33;79.32;102059.56;5100019;28;45346;-77
2023/04/16 07:15:26;;;;;;;;;24.33;24.33;;;;;15.39;79.72;102050.84;5099559;28;45492;-76
2023/04/16 07:17:51;;;;;;;;;31.33;29.67;;;;;15.49;78.42;102053.28;5078063;28;47196;-79
2023/04/16 07:20:16;;;;;;;;;31.33;27.67;;;;;15.59;78.95;102061.13;5077386;28;52589;-78
2023/04/16 07:22:42;;;;;;;;;29.00;26.67;;;;;15.58;78.86;102054.06;5096878;28;45295;-78
2023/04/16 07:25:08;;;;;;;;;21.33;20.67;;;;;15.57;78.10;102050.59;5077912;28;45355;-78
2023/04/16 07:27:33;;;;;;;;;26.00;25.00;;;;;15.56;78.08;102045.41;5099106;28;46093;-79
2023/04/16 07:29:59;;;;;;;;;29.67;29.00;;;;;15.65;78.04;102050.53;5092124;28;59554;-79
2023/04/16 07:32:24;;;;;;;;;32.00;29.33;;;;;15.71;77.29;102051.66;5094569;28;56449;-78
2023/04/16 07:34:50;;;;;;;;;26.33;24.33;;;;;15.84;77.07;102045.75;5096857;27;44570;-78
2023/04/16 07:37:15;;;;;;;;;28.33;27.00;;;;;15.85;76.52;102059.94;5096122;28;45972;-78
2023/04/16 07:39:40;;;;;;;;;31.33;30.33;;;;;15.81;75.14;102050.59;5097906;28;47575;-78
2023/04/16 07:42:06;;;;;;;;;34.00;29.67;;;;;15.81;75.36;102064.00;5097840;28;45310;-79
2023/04/16 07:44:31;;;;;;;;;24.00;24.00;;;;;15.75;75.11;102038.75;5097236;27;45191;-78
2023/04/16 07:46:58;;;;;;;;;34.00;29.00;;;;;15.78;74.37;102054.47;5094862;28;45475;-79
2023/04/16 07:49:23;;;;;;;;;23.33;23.33;;;;;15.78;74.60;102055.28;5100341;28;46321;-77
2023/04/16 07:51:48;;;;;;;;;25.67;25.00;;;;;15.82;74.45;102053.13;5101208;27;45201;-78
2023/04/16 07:54:22;;;;;;;;;28.00;26.67;;;;;15.86;75.17;102050.91;5100853;28;45438;-78
2023/04/16 07:57:36;;;;;;;;;25.67;25.00;;;;;15.90;74.47;102068.31;5098879;27;45217;-79
2023/04/16 08:00:44;;;;;;;;;29.00;26.67;;;;;15.98;75.06;102057.56;5100012;28;45824;-78
2023/04/16 08:03:21;;;;;;;;;26.33;23.00;;;;;15.70;74.20;102022.34;5086325;27;45469;-78
2023/04/16 08:05:47;;;;;;;;;25.67;23.67;;;;;15.68;73.89;102011.00;5095138;28;44736;-77
2023/04/16 08:08:12;;;;;;;;;30.33;26.67;;;;;16.15;72.81;102076.22;5084771;28;45342;-76
2023/04/16 08:10:38;;;;;;;;;26.67;25.00;;;;;16.12;72.59;102061.31;5086157;28;45359;-78
2023/04/16 08:13:03;;;;;;;;;31.33;28.33;;;;;16.20;72.38;102070.31;5064182;28;45505;-76
2023/04/16 08:15:29;;;;;;;;;23.33;22.33;;;;;16.35;72.56;102081.09;5063678;28;45463;-77
2023/04/16 08:17:54;;;;;;;;;30.33;27.00;;;;;16.43;73.46;102077.50;5083129;28;46775;-77
2023/04/16 08:20:20;;;;;;;;;32.00;29.33;;;;;16.43;73.53;102082.88;5092436;28;56739;-77
2023/04/16 08:22:45;;;;;;;;;24.33;23.33;;;;;16.49;71.64;102074.94;5068050;28;52420;-78
2023/04/16 08:25:11;;;;;;;;;27.00;24.67;;;;;16.53;72.22;102075.41;5083178;28;45284;-76
2023/04/16 08:27:36;;;;;;;;;21.33;20.00;;;;;16.55;71.58;102081.41;5082935;28;45260;-77
2023/04/16 08:30:02;;;;;;;;;22.67;22.67;;;;;16.57;70.85;102076.72;5085054;28;46129;-77
2023/04/16 08:32:27;;;;;;;;;24.67;22.67;;;;;16.62;70.96;102093.13;5083214;28;45261;-77
2023/04/16 08:34:52;;;;;;;;;22.67;21.67;;;;;16.60;70.08;102078.19;5082721;28;45347;-77
2023/04/16 08:37:18;;;;;;;;;20.33;20.33;;;;;16.65;69.79;102081.19;5085447;27;45217;-77
2023/04/16 08:39:43;;;;;;;;;18.67;17.67;;;;;16.66;69.17;102085.50;5082531;28;45459;-76
2023/04/16 08:42:28;;;;;;;;;18.00;16.67;;;;;16.68;68.56;102093.38;5086331;28;45272;-76
2023/04/16 08:45:12;;;;;;;;;18.00;17.33;;;;;16.61;68.53;102086.06;5089095;27;45018;-76
2023/04/16 08:47:39;;;;;;;;;21.00;20.00;;;;;16.62;69.06;102084.22;5085867;28;46418;-77
2023/04/16 08:50:05;;;;;;;;;23.00;23.00;;;;;16.72;69.24;102076.75;5075384;28;48200;-76
2023/04/16 08:52:31;;;;;;;;;18.33;16.33;;;;;16.89;68.91;102095.38;5090656;28;45265;-78
2023/04/16 08:55:05;;;;;;;;;19.33;18.33;;;;;16.94;68.29;102089.47;5087769;27;45353;-78
2023/04/16 08:57:39;;;;;;;;;17.67;17.00;;;;;17.04;67.63;102096.19;5090757;28;46423;-76
2023/04/16 09:00:08;;;;;;;;;18.33;16.67;;;;;17.08;67.99;102096.72;5093067;27;45350;-76
2023/04/16 09:02:34;;;;;;;;;15.00;15.00;;;;;17.10;67.98;102081.25;5083226;27;45309;-76
2023/04/16 09:05:04;;;;;;;;;20.00;17.00;;;;;17.21;68.27;102106.78;5082792;28;45280;-75
2023/04/16 09:07:31;;;;;;;;;20.67;18.67;;;;;17.21;66.90;102106.78;5089531;27;45508;-76
2023/04/16 09:09:58;;;;;;;;;14.33;14.00;;;;;17.23;64.80;102110.13;5086589;27;45322;-75
2023/04/16 09:12:24;;;;;;;;;14.33;13.00;;;;;17.20;65.77;102109.66;5086196;27;45450;-76
2023/04/16 09:14:50;;;;;;;;;18.67;17.67;;;;;17.12;64.55;102100.69;5086732;28;45303;-75
2023/04/16 09:17:16;;;;;;;;;18.67;18.67;;;;;17.19;66.28;102111.53;5089382;28;45165;-76
2023/04/16 09:19:42;;;;;;;;;17.00;17.00;;;;;17.22;65.21;102119.22;5087010;28;47187;-76
2023/04/16 09:22:07;;;;;;;;;16.67;16.33;;;;;17.21;65.49;102108.66;5088486;27;45169;-76
2023/04/16 09:24:37;;;;;;;;;19.00;17.00;;;;;17.33;65.18;102107.16;5087305;28;45222;-78
2023/04/16 09:27:03;;;;;;;;;17.00;16.00;;;;;17.49;65.47;102113.38;5092936;28;46961;-77
2023/04/16 09:29:38;;;;;;;;;15.67;15.67;;;;;17.54;64.37;102116.34;5093041;27;45503;-77
2023/04/16 09:32:05;;;;;;;;;16.00;15.67;;;;;17.63;63.51;102109.81;5095301;28;45323;-78
2023/04/16 09:34:52;;;;;;;;;18.00;17.00;;;;;17.72;65.34;102102.47;5074502;28;45237;-78
2023/04/16 09:37:17;;;;;;;;;17.00;16.33;;;;;17.88;64.23;102111.34;5089693;28;72395;-77
2023/04/16 09:39:44;;;;;;;;;16.33;16.33;;;;;18.03;63.76;102108.63;5092541;28;45909;-77
2023/04/16 09:42:10;;;;;;;;;19.00;17.00;;;;;18.05;64.37;102096.63;5073416;28;45504;-76
2023/04/16 09:44:37;;;;;;;;;17.33;16.00;;;;;18.21;63.31;102108.22;5089002;28;45272;-76
2023/04/16 09:47:06;;;;;;;;;14.67;14.67;;;;;18.29;63.71;102112.63;5093557;28;45722;-76
2023/04/16 09:49:41;;;;;;;;;16.67;16.67;;;;;18.44;63.38;102115.25;5092746;28;45259;-77
2023/04/16 09:52:17;;;;;;;;;15.00;14.67;;;;;18.49;61.62;102106.56;5089974;28;45224;-76
2023/04/16 09:54:47;;;;;;;;;13.67;13.67;;;;;18.47;61.09;102104.06;5076056;28;45309;-76
2023/04/16 09:57:13;;;;;;;;;16.33;16.00;;;;;18.62;61.24;102100.47;5077361;28;45773;-77
2023/04/16 09:59:38;;;;;;;;;10.00;10.00;;;;;18.85;61.58;102115.56;5098828;28;46251;-76
2023/04/16 10:02:07;;;;;;;;;11.00;11.00;;;;;19.01;59.96;102115.25;5079115;28;50447;-77
2023/04/16 10:04:45;;;;;;;;;15.33;13.33;;;;;19.12;60.04;102105.81;5097135;28;44591;-78
2023/04/16 10:07:11;;;;;;;;;11.67;11.67;;;;;19.25;59.08;102109.63;5074893;28;46240;-77
2023/04/16 10:09:37;;;;;;;;;12.67;12.67;;;;;19.35;59.53;102109.25;5093934;27;45427;-77
2023/04/16 10:12:02;;;;;;;;;15.00;15.00;;;;;19.43;57.55;102101.81;5086982;28;44797;-77
2023/04/16 10:14:28;;;;;;;;;15.33;14.33;;;;;19.70;57.60;102111.03;5074716;28;45347;-75
2023/04/16 10:16:55;;;;;;;;;15.00;12.67;;;;;19.75;55.60;102114.78;5064816;28;46754;-78
2023/04/16 10:19:21;;;;;;;;;15.00;13.00;;;;;19.76;56.38;102111.09;5086208;28;45952;-77
2023/04/16 10:21:47;;;;;;;;;14.33;12.67;;;;;19.95;56.62;102108.63;5068853;28;45320;-74
2023/04/16 10:24:15;;;;;;;;;13.67;13.33;;;;;20.05;55.95;102109.09;5078473;28;45493;-76
2023/04/16 10:26:41;;;;;;;;;11.33;11.33;;;;;20.25;55.10;102108.28;5060338;28;46984;-76
2023/04/16 10:29:07;;;;;;;;;11.67;10.67;;;;;20.43;55.03;102101.44;5064533;28;47097;-76
2023/04/16 10:31:35;;;;;;;;;13.00;11.67;;;;;20.52;55.05;102100.19;5068202;28;45498;-77
2023/04/16 10:34:02;;;;;;;;;10.00;10.00;;;;;20.59;55.47;102099.38;5076862;28;45438;-75
2023/04/16 10:36:27;;;;;;;;;12.00;11.00;;;;;20.61;53.76;102103.53;5080693;28;45311;-76
2023/04/16 10:38:57;;;;;;;;;11.00;11.00;;;;;20.73;53.18;102108.28;5083707;28;45406;-76
2023/04/16 10:41:25;;;;;;;;;12.00;10.00;;;;;20.83;52.75;102115.97;5078580;28;45362;-76
2023/04/16 10:43:51;;;;;;;;;10.00;10.00;;;;;20.91;52.84;102110.38;5086724;28;45352;-75
2023/04/16 10:46:31;;;;;;;;;10.00;10.00;;;;;21.00;49.98;102111.81;5062591;28;47144;-76
2023/04/16 10:49:11;;;;;;;;;9.00;9.00;;;;;21.01;49.69;102105.34;5079220;28;45690;-76
2023/04/16 10:51:36;;;;;;;;;9.00;8.33;;;;;21.08;47.85;102097.25;5078823;28;45370;-75
2023/04/16 10:54:07;;;;;;;;;11.67;9.00;;;;;21.26;49.30;102104.69;5084442;28;45245;-74
2023/04/16 10:56:34;;;;;;;;;9.33;7.67;;;;;21.37;49.46;102102.34;5061652;28;46520;-74
2023/04/16 10:59:00;;;;;;;;;8.67;8.67;;;;;21.41;47.28;102104.41;5080056;28;45538;-76
2023/04/16 11:01:34;;;;;;;;;9.00;9.00;;;;;21.43;46.09;102101.50;5073669;28;45797;-75
2023/04/16 11:04:18;;;;;;;;;8.00;8.00;;;;;21.49;46.36;102113.31;5044727;28;45331;-75
2023/04/16 11:07:08;;;;;;;;;7.67;7.67;;;;;21.49;45.75;102110.63;5061702;28;45288;-74
2023/04/16 11:09:55;;;;;;;;;9.33;8.67;;;;;21.52;47.06;102099.38;5063158;28;46480;-74